createdAt,value
2024-02-13T00:01:31.766Z,88.40
2024-02-13T00:05:13.679Z,88.10
2024-02-13T00:08:55.637Z,88.30
2024-02-13T00:12:38.122Z,88.50
2024-02-13T00:16:21.789Z,88.60
2024-02-13T00:20:09.958Z,88.80
2024-02-13T00:23:52.042Z,89.00
2024-02-13T00:27:38.657Z,89.10
2024-02-13T00:31:23.819Z,89.30
2024-02-13T00:35:10.262Z,89.40
2024-02-13T00:38:53.905Z,89.60
2024-02-13T00:42:37.126Z,89.90
2024-02-13T00:46:19.227Z,90.00
2024-02-13T00:50:02.820Z,90.00
2024-02-13T00:53:44.733Z,90.00
2024-02-13T00:57:30.297Z,90.10
2024-02-13T01:01:12.343Z,90.10
2024-02-13T01:04:54.214Z,90.10
2024-02-13T01:08:36.925Z,90.10
2024-02-13T01:12:18.789Z,90.20
2024-02-13T01:16:00.926Z,90.30
2024-02-13T01:19:45.300Z,90.30
2024-02-13T01:23:27.551Z,90.40
2024-02-13T01:27:09.371Z,90.50
2024-02-13T01:30:51.204Z,90.50
2024-02-13T01:34:33.022Z,90.50
2024-02-13T01:38:14.927Z,90.60
2024-02-13T01:41:58.314Z,90.70
2024-02-13T01:45:40.186Z,90.80
2024-02-13T01:49:22.662Z,90.90
2024-02-13T01:53:06.112Z,91.00
2024-02-13T01:56:49.629Z,91.00
2024-02-13T02:00:33.700Z,91.10
2024-02-13T02:04:15.757Z,91.10
2024-02-13T02:07:58.181Z,91.20
2024-02-13T02:11:40.117Z,91.20
2024-02-13T02:15:22.071Z,91.30
2024-02-13T02:19:04.343Z,91.30
2024-02-13T02:22:46.760Z,91.40
2024-02-13T02:26:28.665Z,91.70
2024-02-13T02:30:10.721Z,91.50
2024-02-13T02:33:52.682Z,91.60
2024-02-13T02:37:40.767Z,91.60
2024-02-13T02:41:23.976Z,91.60
2024-02-13T02:45:07.695Z,91.50
2024-02-13T02:48:49.628Z,91.60
2024-02-13T02:52:31.584Z,91.70
2024-02-13T02:56:16.903Z,91.70
2024-02-13T02:59:59.082Z,91.80
2024-02-13T03:03:41.039Z,91.80
2024-02-13T03:07:23.159Z,91.90
2024-02-13T03:11:05.442Z,91.90
2024-02-13T03:14:47.483Z,92.00
2024-02-13T03:18:29.561Z,92.10
2024-02-13T03:22:11.522Z,92.10
2024-02-13T03:25:54.927Z,92.10
2024-02-13T03:29:37.998Z,92.20
2024-02-13T03:33:19.940Z,92.30
2024-02-13T03:37:01.874Z,92.20
2024-02-13T03:40:43.726Z,92.20
2024-02-13T03:44:26.899Z,92.20
2024-02-13T03:48:08.935Z,92.20
2024-02-13T03:51:50.802Z,92.20
2024-02-13T03:55:32.571Z,92.20
2024-02-13T03:59:14.716Z,92.20
2024-02-13T04:02:56.623Z,92.20
2024-02-13T04:06:38.639Z,92.20
2024-02-13T04:10:20.478Z,92.20
2024-02-13T04:14:02.740Z,92.40
2024-02-13T04:17:45.772Z,92.40
2024-02-13T04:21:27.712Z,92.50
2024-02-13T04:25:09.923Z,92.50
2024-02-13T04:28:51.973Z,92.50
2024-02-13T04:32:39.209Z,92.50
2024-02-13T04:36:24.640Z,92.50
2024-02-13T04:40:09.690Z,92.10
2024-02-13T04:43:57.360Z,92.40
2024-02-13T04:47:39.403Z,92.40
2024-02-13T04:51:21.555Z,92.40
2024-02-13T04:55:07.185Z,92.50
2024-02-13T04:58:49.468Z,92.60
2024-02-13T05:02:34.096Z,92.70
2024-02-13T05:06:35.560Z,92.80
2024-02-13T05:14:20.838Z,93.10
2024-02-13T05:18:14.758Z,93.20
2024-02-13T05:22:07.378Z,93.30
2024-02-13T05:25:50.442Z,93.50
2024-02-13T05:29:34.481Z,93.60
2024-02-13T05:33:22.853Z,93.60
2024-02-13T05:37:06.386Z,93.70
2024-02-13T05:40:48.195Z,93.70
2024-02-13T05:44:30.128Z,93.70
2024-02-13T05:48:12.182Z,93.70
2024-02-13T05:51:54.341Z,93.80
2024-02-13T05:55:36.209Z,93.80
2024-02-13T06:03:28.646Z,93.80
2024-02-13T06:07:12.913Z,93.80
2024-02-13T06:10:54.933Z,93.80
2024-02-13T06:14:38.406Z,93.90
2024-02-13T06:22:00.620Z,94.00
2024-02-13T06:25:44.011Z,94.10
2024-02-13T06:29:26.008Z,94.20
2024-02-13T06:33:09.756Z,94.40
2024-02-13T06:36:52.220Z,94.60
2024-02-13T06:40:35.513Z,94.80
2024-02-13T06:44:17.568Z,94.90
2024-02-13T06:47:59.749Z,95.00
2024-02-13T06:51:41.765Z,95.10
2024-02-13T06:55:23.655Z,95.20
2024-02-13T06:59:08.846Z,95.30
2024-02-13T07:02:50.839Z,95.30
2024-02-13T07:06:43.513Z,95.50
2024-02-13T07:10:35.218Z,95.60
2024-02-13T07:14:17.111Z,95.70
2024-02-13T07:18:01.362Z,95.80
2024-02-13T07:21:51.554Z,95.90
2024-02-13T07:25:33.339Z,96.00
2024-02-13T07:29:16.811Z,96.10
2024-02-13T07:32:58.773Z,96.20
2024-02-13T07:36:40.694Z,96.40
2024-02-13T07:40:22.585Z,96.60
2024-02-13T07:44:04.723Z,96.60
2024-02-13T07:47:46.820Z,96.70
2024-02-13T07:51:28.720Z,96.70
2024-02-13T07:55:12.496Z,96.80
2024-02-13T07:58:55.136Z,96.90
2024-02-13T08:02:36.947Z,97.00
2024-02-13T08:06:18.895Z,97.10
2024-02-13T08:10:00.865Z,97.20
2024-02-13T08:13:42.736Z,97.30
2024-02-13T08:17:24.902Z,97.40
2024-02-13T08:21:07.250Z,97.50
2024-02-13T08:24:50.566Z,97.60
2024-02-13T08:28:32.541Z,97.60
2024-02-13T08:32:14.436Z,97.70
2024-02-13T08:35:57.709Z,97.90
2024-02-13T08:39:39.813Z,98.00
2024-02-13T08:43:22.302Z,98.10
2024-02-13T08:47:05.495Z,98.30
2024-02-13T08:50:50.570Z,98.30
2024-02-13T08:54:32.455Z,98.40
2024-02-13T08:58:14.254Z,98.60
2024-02-13T09:01:58.167Z,98.80
2024-02-13T09:05:40.751Z,99.00
2024-02-13T09:09:22.590Z,99.00
2024-02-13T09:13:04.819Z,99.10
2024-02-13T09:16:46.631Z,99.20
2024-02-13T09:20:28.504Z,99.20
2024-02-13T09:24:10.881Z,99.50
2024-02-13T09:27:54.097Z,99.60
2024-02-13T09:31:36.117Z,99.70
2024-02-13T09:35:18.998Z,99.70
2024-02-13T09:39:01.035Z,99.80
2024-02-13T09:42:46.974Z,99.90
2024-02-13T09:50:19.355Z,99.90
2024-02-13T09:54:06.599Z,99.90
2024-02-13T09:57:50.430Z,99.90
2024-02-13T10:01:32.575Z,99.90
2024-02-13T10:05:15.146Z,99.90
2024-02-13T10:09:00.237Z,99.90
2024-02-13T10:12:56.244Z,99.90
2024-02-13T10:16:38.091Z,99.90
2024-02-13T10:20:20.520Z,99.90
2024-02-13T10:24:14.364Z,99.90
2024-02-13T10:27:56.729Z,99.90
2024-02-13T10:31:41.784Z,99.90
2024-02-13T10:35:25.670Z,99.90
2024-02-13T10:39:09.600Z,99.90
2024-02-13T10:42:51.820Z,99.90
2024-02-13T10:46:40.361Z,99.90
2024-02-13T10:50:25.908Z,99.90
2024-02-13T10:54:10.465Z,99.90
2024-02-13T10:57:53.681Z,99.90
2024-02-13T11:01:37.190Z,99.90
2024-02-13T11:05:20.913Z,99.90
2024-02-13T11:09:03.493Z,99.90
2024-02-13T11:13:06.925Z,99.90
2024-02-13T11:16:57.186Z,99.90
2024-02-13T11:20:40.572Z,99.90
2024-02-13T11:24:22.849Z,99.90
2024-02-13T11:28:08.761Z,99.90
2024-02-13T11:31:59.387Z,99.90
2024-02-13T11:35:46.238Z,99.90
2024-02-13T11:39:28.246Z,99.90
2024-02-13T11:43:26.049Z,99.90
2024-02-13T11:47:08.728Z,99.90
2024-02-13T11:50:51.731Z,99.90
2024-02-13T11:54:33.809Z,99.90
2024-02-13T11:58:22.954Z,99.90
2024-02-13T12:02:15.084Z,99.90
2024-02-13T12:05:58.133Z,99.90
2024-02-13T12:09:45.565Z,99.90
2024-02-13T12:13:27.775Z,99.90
2024-02-13T12:17:11.834Z,99.90
2024-02-13T12:20:54.060Z,99.90
2024-02-13T12:24:37.160Z,99.90
2024-02-13T12:28:18.998Z,99.90
2024-02-13T12:32:01.957Z,99.90
2024-02-13T12:35:47.734Z,99.90
2024-02-13T12:39:31.602Z,99.90
2024-02-13T12:43:16.825Z,99.90
2024-02-13T12:46:59.043Z,99.90
2024-02-13T12:50:43.165Z,99.90
2024-02-13T12:54:27.608Z,99.90
2024-02-13T12:58:12.654Z,99.90
2024-02-13T13:01:55.691Z,99.90
2024-02-13T13:05:42.546Z,99.90
2024-02-13T13:09:28.572Z,99.90
2024-02-13T13:13:12.189Z,99.90
2024-02-13T13:16:55.596Z,99.90
2024-02-13T13:20:38.180Z,99.90
2024-02-13T13:24:20.084Z,99.90
2024-02-13T13:28:10.961Z,99.90
2024-02-13T13:31:52.932Z,99.90
2024-02-13T13:35:36.573Z,99.90
2024-02-13T13:39:18.582Z,99.90
2024-02-13T13:43:00.983Z,99.90
2024-02-13T13:46:42.869Z,99.90
2024-02-13T13:50:25.886Z,99.90
2024-02-13T13:54:08.073Z,99.90
2024-02-13T13:57:50.271Z,99.90
2024-02-13T14:01:32.437Z,99.90
2024-02-13T14:05:14.899Z,99.90
2024-02-13T14:08:56.743Z,99.90
2024-02-13T14:12:39.246Z,99.90
2024-02-13T14:16:21.074Z,99.90
2024-02-13T14:20:03.144Z,99.90
2024-02-13T14:23:45.241Z,99.90
2024-02-13T14:27:29.398Z,99.90
2024-02-13T14:31:12.294Z,99.90
2024-02-13T14:34:54.179Z,99.90
2024-02-13T14:38:37.194Z,99.90
2024-02-13T14:42:22.955Z,99.90
2024-02-13T14:46:06.364Z,99.90
2024-02-13T14:49:48.872Z,99.90
2024-02-13T14:53:30.692Z,99.90
2024-02-13T14:57:12.649Z,99.90
2024-02-13T15:00:56.151Z,99.90
2024-02-13T15:04:39.450Z,99.90
2024-02-13T15:08:21.414Z,99.90
2024-02-13T15:12:04.455Z,99.90
2024-02-13T15:15:49.573Z,99.90
2024-02-13T15:19:31.603Z,99.90
2024-02-13T15:23:15.197Z,99.90
2024-02-13T15:26:57.091Z,99.90
2024-02-13T15:30:39.723Z,99.90
2024-02-13T15:34:24.246Z,99.90
2024-02-13T15:38:25.345Z,99.90
2024-02-13T15:42:25.865Z,99.90
2024-02-13T15:46:26.242Z,99.90
2024-02-13T15:50:08.502Z,99.90
2024-02-13T15:53:56.033Z,99.90
2024-02-13T15:57:42.659Z,99.90
2024-02-13T16:01:29.957Z,99.90
2024-02-13T16:05:16.780Z,99.90
2024-02-13T16:09:06.299Z,99.90
2024-02-13T16:12:49.676Z,99.90
2024-02-13T16:16:31.451Z,99.90
2024-02-13T16:20:13.953Z,99.90
2024-02-13T16:23:56.410Z,99.90
2024-02-13T16:27:38.278Z,99.90
2024-02-13T16:31:22.708Z,99.90
2024-02-13T16:35:07.199Z,99.90
2024-02-13T16:38:49.046Z,99.90
2024-02-13T16:42:31.626Z,99.90
2024-02-13T16:46:18.180Z,99.90
2024-02-13T16:50:01.021Z,99.90
2024-02-13T16:53:42.923Z,99.90
2024-02-13T16:57:24.874Z,99.90
2024-02-13T17:01:06.939Z,99.90
2024-02-13T17:04:49.263Z,99.90
2024-02-13T17:08:31.596Z,99.90
2024-02-13T17:12:13.873Z,99.90
2024-02-13T17:15:56.586Z,99.90
2024-02-13T17:19:39.990Z,99.90
2024-02-13T17:23:21.961Z,99.90
2024-02-13T17:27:04.929Z,99.90
2024-02-13T17:30:46.729Z,99.90
2024-02-13T17:34:28.680Z,99.90
2024-02-13T17:38:11.586Z,99.90
2024-02-13T17:41:53.599Z,99.90
2024-02-13T17:45:35.824Z,99.90
2024-02-13T17:49:18.202Z,99.90
2024-02-13T17:53:00.034Z,99.90
2024-02-13T17:56:41.921Z,99.90
2024-02-13T18:00:24.371Z,99.90
2024-02-13T18:04:06.538Z,99.90
2024-02-13T18:07:48.399Z,99.90
2024-02-13T18:11:30.263Z,99.90
2024-02-13T18:15:14.340Z,99.90
2024-02-13T18:18:57.748Z,99.90
2024-02-13T18:22:39.723Z,99.90
2024-02-13T18:26:24.834Z,99.90
2024-02-13T18:30:07.421Z,99.90
2024-02-13T18:33:51.997Z,99.90
2024-02-13T18:37:33.955Z,99.90
2024-02-13T18:41:17.526Z,99.90
2024-02-13T18:44:59.397Z,99.90
2024-02-13T18:48:42.985Z,99.90
2024-02-13T18:52:25.944Z,99.90
2024-02-13T18:56:07.922Z,99.90
2024-02-13T18:59:49.787Z,99.90
2024-02-13T19:03:32.046Z,99.90
2024-02-13T19:07:13.887Z,99.90
2024-02-13T19:10:57.564Z,99.90
2024-02-13T19:14:39.584Z,99.90
2024-02-13T19:18:21.627Z,99.90
2024-02-13T19:22:04.413Z,99.90
2024-02-13T19:25:46.605Z,99.90
2024-02-13T19:29:28.560Z,99.90
2024-02-13T19:33:11.204Z,99.90
2024-02-13T19:36:53.235Z,99.90
2024-02-13T19:40:35.061Z,99.90
2024-02-13T19:44:18.625Z,99.90
2024-02-13T19:48:00.953Z,99.90
2024-02-13T19:51:44.706Z,99.90
2024-02-13T19:55:26.795Z,99.90
2024-02-13T19:59:08.690Z,99.90
2024-02-13T20:02:50.515Z,99.90
2024-02-13T20:06:37.136Z,99.90
2024-02-13T20:10:21.623Z,99.90
2024-02-13T20:14:04.428Z,99.90
2024-02-13T20:17:46.766Z,99.90
2024-02-13T20:21:32.752Z,99.90
2024-02-13T20:25:15.468Z,99.90
2024-02-13T20:28:57.322Z,99.90
2024-02-13T20:32:39.817Z,99.90
2024-02-13T20:36:21.740Z,99.90
2024-02-13T20:40:08.616Z,99.90
2024-02-13T20:43:50.720Z,99.90
2024-02-13T20:47:32.665Z,99.90
2024-02-13T20:51:15.311Z,99.90
2024-02-13T20:54:57.222Z,99.90
2024-02-13T20:58:39.097Z,99.90
2024-02-13T21:02:20.975Z,99.90
2024-02-13T21:06:02.861Z,99.90
2024-02-13T21:09:46.744Z,99.90
2024-02-13T21:13:33.790Z,99.90
2024-02-13T21:17:15.641Z,99.90
2024-02-13T21:21:29.335Z,99.90
2024-02-13T21:25:11.392Z,99.90
2024-02-13T21:28:54.848Z,99.90
2024-02-13T21:32:37.277Z,99.90
2024-02-13T21:36:19.134Z,99.90
2024-02-13T21:40:00.928Z,99.90
2024-02-13T21:43:42.865Z,99.90
2024-02-13T21:47:25.463Z,99.90
2024-02-13T21:51:07.406Z,99.90
2024-02-13T21:54:49.264Z,99.90
2024-02-13T21:58:31.122Z,99.90
2024-02-13T22:02:13.040Z,99.90
2024-02-13T22:05:54.983Z,99.90
2024-02-13T22:09:36.874Z,99.90
2024-02-13T22:13:19.024Z,99.90
2024-02-13T22:17:00.850Z,99.90
2024-02-13T22:20:45.520Z,99.90
2024-02-13T22:24:27.654Z,99.90
2024-02-13T22:28:09.994Z,99.90
2024-02-13T22:31:51.802Z,99.90
2024-02-13T22:35:33.680Z,99.90
2024-02-13T22:39:15.515Z,99.90
2024-02-13T22:42:57.874Z,99.90
2024-02-13T22:46:39.770Z,99.90
2024-02-13T22:50:25.419Z,99.90
2024-02-13T22:54:07.481Z,99.90
2024-02-13T22:57:49.332Z,99.90
2024-02-13T23:01:35.142Z,99.90
2024-02-13T23:05:17.280Z,99.90
2024-02-13T23:09:00.561Z,99.90
2024-02-13T23:12:42.475Z,99.90
2024-02-13T23:16:24.659Z,99.90
2024-02-13T23:20:11.766Z,99.90
2024-02-13T23:23:53.558Z,99.90
2024-02-13T23:27:35.494Z,99.90
2024-02-13T23:31:18.764Z,99.90
2024-02-13T23:35:03.382Z,99.90
2024-02-13T23:38:46.906Z,99.90
2024-02-13T23:42:28.905Z,99.90
2024-02-13T23:46:10.737Z,99.90
2024-02-13T23:49:52.561Z,99.90
2024-02-13T23:53:34.710Z,99.90
2024-02-13T23:57:16.937Z,99.90
